sensor_id;sensor_type;location;lat;lon;timestamp;P1;durP1;ratioP1;P2;durP2;ratioP2
72095;SDS011;59968;51.084;16.748;2023-06-14T00:05:27;7.10;;;4.10;;
72095;SDS011;59968;51.084;16.748;2023-06-14T00:08:02;8.10;;;4.20;;
72095;SDS011;59968;51.084;16.748;2023-06-14T00:10:35;7.30;;;4.60;;
72095;SDS011;59968;51.084;16.748;2023-06-14T00:13:09;8.40;;;4.50;;
72095;SDS011;59968;51.084;16.748;2023-06-14T00:15:40;6.70;;;4.30;;
72095;SDS011;59968;51.084;16.748;2023-06-14T00:18:11;7.20;;;4.60;;
72095;SDS011;59968;51.084;16.748;2023-06-14T00:21:04;8.00;;;4.60;;
72095;SDS011;59968;51.084;16.748;2023-06-14T00:23:33;7.00;;;4.70;;
72095;SDS011;59968;51.084;16.748;2023-06-14T00:26:07;6.70;;;4.30;;
72095;SDS011;59968;51.084;16.748;2023-06-14T00:28:41;7.00;;;4.60;;
72095;SDS011;59968;51.084;16.748;2023-06-14T00:35:50;9.70;;;4.30;;
72095;SDS011;59968;51.084;16.748;2023-06-14T00:38:20;7.90;;;4.50;;
72095;SDS011;59968;51.084;16.748;2023-06-14T00:45:32;7.60;;;4.40;;
72095;SDS011;59968;51.084;16.748;2023-06-14T00:48:13;8.50;;;4.80;;
72095;SDS011;59968;51.084;16.748;2023-06-14T00:50:44;8.60;;;4.50;;
72095;SDS011;59968;51.084;16.748;2023-06-14T00:53:40;8.30;;;4.40;;
72095;SDS011;59968;51.084;16.748;2023-06-14T00:56:14;7.70;;;4.80;;
72095;SDS011;59968;51.084;16.748;2023-06-14T00:58:43;6.40;;;4.10;;
72095;SDS011;59968;51.084;16.748;2023-06-14T01:05:40;10.10;;;4.80;;
72095;SDS011;59968;51.084;16.748;2023-06-14T01:08:31;7.80;;;4.10;;
72095;SDS011;59968;51.084;16.748;2023-06-14T01:11:07;8.00;;;4.50;;
72095;SDS011;59968;51.084;16.748;2023-06-14T01:13:48;7.20;;;4.60;;
72095;SDS011;59968;51.084;16.748;2023-06-14T01:20:40;7.50;;;4.40;;
72095;SDS011;59968;51.084;16.748;2023-06-14T01:23:09;8.40;;;4.50;;
72095;SDS011;59968;51.084;16.748;2023-06-14T01:30:18;7.30;;;4.50;;
72095;SDS011;59968;51.084;16.748;2023-06-14T01:32:49;7.00;;;4.20;;
72095;SDS011;59968;51.084;16.748;2023-06-14T01:35:24;6.00;;;4.10;;
72095;SDS011;59968;51.084;16.748;2023-06-14T01:38:00;8.50;;;4.40;;
72095;SDS011;59968;51.084;16.748;2023-06-14T01:40:36;6.70;;;4.50;;
72095;SDS011;59968;51.084;16.748;2023-06-14T01:43:06;8.70;;;4.90;;
72095;SDS011;59968;51.084;16.748;2023-06-14T01:45:42;10.00;;;5.40;;
72095;SDS011;59968;51.084;16.748;2023-06-14T01:48:12;9.30;;;5.30;;
72095;SDS011;59968;51.084;16.748;2023-06-14T01:50:45;9.20;;;5.60;;
72095;SDS011;59968;51.084;16.748;2023-06-14T01:53:14;10.20;;;6.30;;
72095;SDS011;59968;51.084;16.748;2023-06-14T02:00:23;9.80;;;5.80;;
72095;SDS011;59968;51.084;16.748;2023-06-14T02:02:57;9.00;;;5.00;;
72095;SDS011;59968;51.084;16.748;2023-06-14T02:05:27;9.70;;;5.20;;
72095;SDS011;59968;51.084;16.748;2023-06-14T02:07:56;8.60;;;4.70;;
72095;SDS011;59968;51.084;16.748;2023-06-14T02:10:28;8.90;;;4.80;;
72095;SDS011;59968;51.084;16.748;2023-06-14T02:13:06;8.20;;;5.00;;
72095;SDS011;59968;51.084;16.748;2023-06-14T02:15:40;7.80;;;4.30;;
72095;SDS011;59968;51.084;16.748;2023-06-14T02:18:12;9.00;;;5.10;;
72095;SDS011;59968;51.084;16.748;2023-06-14T02:20:42;7.10;;;4.60;;
72095;SDS011;59968;51.084;16.748;2023-06-14T02:23:12;8.10;;;4.90;;
72095;SDS011;59968;51.084;16.748;2023-06-14T02:25:46;7.60;;;4.40;;
72095;SDS011;59968;51.084;16.748;2023-06-14T02:28:15;7.20;;;4.80;;
72095;SDS011;59968;51.084;16.748;2023-06-14T02:30:48;6.90;;;4.70;;
72095;SDS011;59968;51.084;16.748;2023-06-14T02:33:20;8.10;;;4.70;;
72095;SDS011;59968;51.084;16.748;2023-06-14T02:35:57;6.70;;;4.90;;
72095;SDS011;59968;51.084;16.748;2023-06-14T02:38:54;7.80;;;4.60;;
72095;SDS011;59968;51.084;16.748;2023-06-14T02:41:28;7.30;;;4.70;;
72095;SDS011;59968;51.084;16.748;2023-06-14T02:43:56;7.50;;;4.70;;
72095;SDS011;59968;51.084;16.748;2023-06-14T02:46:31;8.10;;;4.60;;
72095;SDS011;59968;51.084;16.748;2023-06-14T02:49:00;6.90;;;4.60;;
72095;SDS011;59968;51.084;16.748;2023-06-14T02:51:31;8.10;;;4.70;;
72095;SDS011;59968;51.084;16.748;2023-06-14T02:54:08;7.30;;;4.70;;
72095;SDS011;59968;51.084;16.748;2023-06-14T03:01:16;7.60;;;4.20;;
72095;SDS011;59968;51.084;16.748;2023-06-14T03:03:57;7.90;;;4.80;;
72095;SDS011;59968;51.084;16.748;2023-06-14T03:10:57;7.30;;;4.70;;
72095;SDS011;59968;51.084;16.748;2023-06-14T03:13:27;7.00;;;4.60;;
72095;SDS011;59968;51.084;16.748;2023-06-14T03:20:35;6.60;;;3.90;;
72095;SDS011;59968;51.084;16.748;2023-06-14T03:23:09;6.60;;;4.10;;
72095;SDS011;59968;51.084;16.748;2023-06-14T03:25:41;7.50;;;4.70;;
72095;SDS011;59968;51.084;16.748;2023-06-14T03:28:15;6.70;;;4.50;;
72095;SDS011;59968;51.084;16.748;2023-06-14T03:30:44;7.20;;;4.60;;
72095;SDS011;59968;51.084;16.748;2023-06-14T03:37:53;6.90;;;4.30;;
72095;SDS011;59968;51.084;16.748;2023-06-14T03:40:31;7.80;;;4.70;;
72095;SDS011;59968;51.084;16.748;2023-06-14T03:43:03;7.80;;;4.60;;
72095;SDS011;59968;51.084;16.748;2023-06-14T03:45:34;7.90;;;4.80;;
72095;SDS011;59968;51.084;16.748;2023-06-14T03:48:06;7.70;;;4.50;;
72095;SDS011;59968;51.084;16.748;2023-06-14T03:55:03;6.60;;;4.40;;
72095;SDS011;59968;51.084;16.748;2023-06-14T03:57:39;8.30;;;4.30;;
72095;SDS011;59968;51.084;16.748;2023-06-14T04:00:11;7.50;;;4.60;;
72095;SDS011;59968;51.084;16.748;2023-06-14T04:02:46;7.70;;;4.40;;
72095;SDS011;59968;51.084;16.748;2023-06-14T04:05:19;7.80;;;4.80;;
72095;SDS011;59968;51.084;16.748;2023-06-14T04:07:50;8.70;;;4.80;;
72095;SDS011;59968;51.084;16.748;2023-06-14T04:10:19;8.50;;;4.70;;
72095;SDS011;59968;51.084;16.748;2023-06-14T04:12:59;9.40;;;4.80;;
72095;SDS011;59968;51.084;16.748;2023-06-14T04:15:28;8.60;;;4.60;;
72095;SDS011;59968;51.084;16.748;2023-06-14T04:18:00;8.70;;;5.00;;
72095;SDS011;59968;51.084;16.748;2023-06-14T04:20:31;7.70;;;5.00;;
72095;SDS011;59968;51.084;16.748;2023-06-14T04:23:13;9.30;;;5.90;;
72095;SDS011;59968;51.084;16.748;2023-06-14T04:25:50;7.70;;;5.60;;
72095;SDS011;59968;51.084;16.748;2023-06-14T04:28:19;8.50;;;5.00;;
72095;SDS011;59968;51.084;16.748;2023-06-14T04:35:10;7.80;;;4.70;;
72095;SDS011;59968;51.084;16.748;2023-06-14T04:37:42;9.50;;;5.00;;
72095;SDS011;59968;51.084;16.748;2023-06-14T04:40:15;8.50;;;5.00;;
72095;SDS011;59968;51.084;16.748;2023-06-14T04:42:43;9.90;;;5.50;;
72095;SDS011;59968;51.084;16.748;2023-06-14T04:45:18;8.50;;;5.20;;
72095;SDS011;59968;51.084;16.748;2023-06-14T04:47:47;8.30;;;5.20;;
72095;SDS011;59968;51.084;16.748;2023-06-14T04:50:16;7.90;;;5.10;;
72095;SDS011;59968;51.084;16.748;2023-06-14T04:52:45;8.50;;;5.10;;
72095;SDS011;59968;51.084;16.748;2023-06-14T04:55:16;9.80;;;5.30;;
72095;SDS011;59968;51.084;16.748;2023-06-14T04:57:45;8.30;;;5.50;;
72095;SDS011;59968;51.084;16.748;2023-06-14T05:00:14;8.90;;;5.30;;
72095;SDS011;59968;51.084;16.748;2023-06-14T05:02:44;8.70;;;5.30;;
72095;SDS011;59968;51.084;16.748;2023-06-14T05:05:16;11.00;;;5.90;;
72095;SDS011;59968;51.084;16.748;2023-06-14T05:07:46;8.70;;;5.60;;
72095;SDS011;59968;51.084;16.748;2023-06-14T05:10:14;7.70;;;4.40;;
72095;SDS011;59968;51.084;16.748;2023-06-14T05:12:43;8.50;;;5.80;;
72095;SDS011;59968;51.084;16.748;2023-06-14T05:15:15;10.20;;;6.00;;
72095;SDS011;59968;51.084;16.748;2023-06-14T05:17:45;12.10;;;5.80;;
72095;SDS011;59968;51.084;16.748;2023-06-14T05:20:23;9.80;;;6.10;;
72095;SDS011;59968;51.084;16.748;2023-06-14T05:22:54;10.80;;;5.70;;
72095;SDS011;59968;51.084;16.748;2023-06-14T05:25:24;9.60;;;5.50;;
72095;SDS011;59968;51.084;16.748;2023-06-14T05:27:53;9.10;;;5.80;;
72095;SDS011;59968;51.084;16.748;2023-06-14T05:30:22;9.00;;;5.50;;
72095;SDS011;59968;51.084;16.748;2023-06-14T05:32:52;8.50;;;5.90;;
72095;SDS011;59968;51.084;16.748;2023-06-14T05:35:21;13.00;;;5.90;;
72095;SDS011;59968;51.084;16.748;2023-06-14T05:37:51;12.10;;;5.20;;
72095;SDS011;59968;51.084;16.748;2023-06-14T05:40:22;9.70;;;5.60;;
72095;SDS011;59968;51.084;16.748;2023-06-14T05:42:51;8.50;;;5.60;;
72095;SDS011;59968;51.084;16.748;2023-06-14T05:45:20;8.30;;;5.60;;
72095;SDS011;59968;51.084;16.748;2023-06-14T05:47:49;9.30;;;5.90;;
72095;SDS011;59968;51.084;16.748;2023-06-14T05:50:18;11.50;;;6.20;;
72095;SDS011;59968;51.084;16.748;2023-06-14T05:52:47;11.20;;;6.50;;
72095;SDS011;59968;51.084;16.748;2023-06-14T05:55:16;10.20;;;6.40;;
72095;SDS011;59968;51.084;16.748;2023-06-14T05:57:46;10.60;;;5.40;;
72095;SDS011;59968;51.084;16.748;2023-06-14T06:00:16;9.70;;;5.80;;
72095;SDS011;59968;51.084;16.748;2023-06-14T06:02:45;10.10;;;6.00;;
72095;SDS011;59968;51.084;16.748;2023-06-14T06:05:16;11.00;;;6.30;;
72095;SDS011;59968;51.084;16.748;2023-06-14T06:07:46;8.40;;;5.70;;
72095;SDS011;59968;51.084;16.748;2023-06-14T06:10:14;9.90;;;6.30;;
72095;SDS011;59968;51.084;16.748;2023-06-14T06:12:43;10.10;;;6.10;;
72095;SDS011;59968;51.084;16.748;2023-06-14T06:15:12;9.80;;;5.90;;
72095;SDS011;59968;51.084;16.748;2023-06-14T06:17:41;11.70;;;5.70;;
72095;SDS011;59968;51.084;16.748;2023-06-14T06:20:23;9.00;;;5.90;;
72095;SDS011;59968;51.084;16.748;2023-06-14T06:22:57;9.40;;;5.80;;
72095;SDS011;59968;51.084;16.748;2023-06-14T06:25:27;10.90;;;5.80;;
72095;SDS011;59968;51.084;16.748;2023-06-14T06:27:56;10.40;;;5.40;;
72095;SDS011;59968;51.084;16.748;2023-06-14T06:30:26;11.20;;;5.80;;
72095;SDS011;59968;51.084;16.748;2023-06-14T06:32:55;9.30;;;5.80;;
72095;SDS011;59968;51.084;16.748;2023-06-14T06:35:26;9.30;;;6.40;;
72095;SDS011;59968;51.084;16.748;2023-06-14T06:37:55;11.30;;;6.20;;
72095;SDS011;59968;51.084;16.748;2023-06-14T06:40:24;9.00;;;6.10;;
72095;SDS011;59968;51.084;16.748;2023-06-14T06:42:53;8.70;;;6.10;;
72095;SDS011;59968;51.084;16.748;2023-06-14T06:45:22;8.80;;;5.40;;
72095;SDS011;59968;51.084;16.748;2023-06-14T06:47:52;9.60;;;5.40;;
72095;SDS011;59968;51.084;16.748;2023-06-14T06:50:21;11.50;;;5.20;;
72095;SDS011;59968;51.084;16.748;2023-06-14T06:52:53;8.50;;;5.40;;
72095;SDS011;59968;51.084;16.748;2023-06-14T06:55:21;7.80;;;4.70;;
72095;SDS011;59968;51.084;16.748;2023-06-14T06:57:51;9.80;;;5.10;;
72095;SDS011;59968;51.084;16.748;2023-06-14T07:00:23;10.40;;;5.50;;
72095;SDS011;59968;51.084;16.748;2023-06-14T07:02:55;8.20;;;5.00;;
72095;SDS011;59968;51.084;16.748;2023-06-14T07:05:26;10.70;;;5.50;;
72095;SDS011;59968;51.084;16.748;2023-06-14T07:07:56;9.40;;;5.30;;
72095;SDS011;59968;51.084;16.748;2023-06-14T07:10:25;10.60;;;5.60;;
72095;SDS011;59968;51.084;16.748;2023-06-14T07:12:54;9.50;;;5.90;;
72095;SDS011;59968;51.084;16.748;2023-06-14T07:15:23;11.40;;;5.50;;
72095;SDS011;59968;51.084;16.748;2023-06-14T07:17:53;7.40;;;4.30;;
72095;SDS011;59968;51.084;16.748;2023-06-14T07:20:22;9.40;;;5.60;;
72095;SDS011;59968;51.084;16.748;2023-06-14T07:22:53;9.00;;;5.90;;
72095;SDS011;59968;51.084;16.748;2023-06-14T07:25:22;10.30;;;6.30;;
72095;SDS011;59968;51.084;16.748;2023-06-14T07:27:51;10.40;;;6.20;;
72095;SDS011;59968;51.084;16.748;2023-06-14T07:30:20;11.00;;;6.30;;
72095;SDS011;59968;51.084;16.748;2023-06-14T07:32:49;10.50;;;5.90;;
72095;SDS011;59968;51.084;16.748;2023-06-14T07:35:19;11.00;;;6.90;;
72095;SDS011;59968;51.084;16.748;2023-06-14T07:37:48;10.50;;;6.80;;
72095;SDS011;59968;51.084;16.748;2023-06-14T07:40:17;9.80;;;7.10;;
72095;SDS011;59968;51.084;16.748;2023-06-14T07:42:46;10.10;;;6.30;;
72095;SDS011;59968;51.084;16.748;2023-06-14T07:45:15;9.90;;;6.50;;
72095;SDS011;59968;51.084;16.748;2023-06-14T07:47:44;11.70;;;7.00;;
72095;SDS011;59968;51.084;16.748;2023-06-14T07:50:13;7.90;;;5.30;;
72095;SDS011;59968;51.084;16.748;2023-06-14T07:52:41;13.50;;;7.20;;
72095;SDS011;59968;51.084;16.748;2023-06-14T07:55:10;12.80;;;6.70;;
72095;SDS011;59968;51.084;16.748;2023-06-14T07:57:39;9.90;;;6.30;;
72095;SDS011;59968;51.084;16.748;2023-06-14T08:00:07;11.10;;;7.40;;
72095;SDS011;59968;51.084;16.748;2023-06-14T08:02:39;11.20;;;7.50;;
72095;SDS011;59968;51.084;16.748;2023-06-14T08:05:09;12.20;;;8.20;;
72095;SDS011;59968;51.084;16.748;2023-06-14T08:07:39;12.20;;;7.70;;
72095;SDS011;59968;51.084;16.748;2023-06-14T08:10:08;10.60;;;6.90;;
72095;SDS011;59968;51.084;16.748;2023-06-14T08:12:37;12.30;;;7.60;;
72095;SDS011;59968;51.084;16.748;2023-06-14T08:15:06;10.30;;;7.60;;
72095;SDS011;59968;51.084;16.748;2023-06-14T08:17:44;9.30;;;6.50;;
72095;SDS011;59968;51.084;16.748;2023-06-14T08:20:13;10.60;;;7.10;;
72095;SDS011;59968;51.084;16.748;2023-06-14T08:22:45;10.60;;;7.80;;
72095;SDS011;59968;51.084;16.748;2023-06-14T08:25:16;12.50;;;8.60;;
72095;SDS011;59968;51.084;16.748;2023-06-14T08:27:45;11.50;;;7.90;;
72095;SDS011;59968;51.084;16.748;2023-06-14T08:30:14;10.30;;;6.90;;
72095;SDS011;59968;51.084;16.748;2023-06-14T08:32:43;10.60;;;6.50;;
72095;SDS011;59968;51.084;16.748;2023-06-14T08:35:12;8.60;;;6.30;;
72095;SDS011;59968;51.084;16.748;2023-06-14T08:37:42;9.70;;;5.90;;
72095;SDS011;59968;51.084;16.748;2023-06-14T08:40:21;10.40;;;6.60;;
72095;SDS011;59968;51.084;16.748;2023-06-14T08:42:53;10.30;;;6.30;;
72095;SDS011;59968;51.084;16.748;2023-06-14T08:45:24;8.90;;;5.70;;
72095;SDS011;59968;51.084;16.748;2023-06-14T08:47:59;7.20;;;4.80;;
72095;SDS011;59968;51.084;16.748;2023-06-14T08:50:28;9.50;;;6.30;;
72095;SDS011;59968;51.084;16.748;2023-06-14T08:53:01;10.20;;;6.30;;
72095;SDS011;59968;51.084;16.748;2023-06-14T08:55:33;10.20;;;6.00;;
72095;SDS011;59968;51.084;16.748;2023-06-14T08:58:05;7.30;;;5.00;;
72095;SDS011;59968;51.084;16.748;2023-06-14T09:00:34;8.10;;;5.40;;
72095;SDS011;59968;51.084;16.748;2023-06-14T09:03:02;6.90;;;4.80;;
72095;SDS011;59968;51.084;16.748;2023-06-14T09:05:32;7.70;;;5.40;;
72095;SDS011;59968;51.084;16.748;2023-06-14T09:08:00;9.00;;;4.70;;
72095;SDS011;59968;51.084;16.748;2023-06-14T09:10:33;7.60;;;4.50;;
72095;SDS011;59968;51.084;16.748;2023-06-14T09:13:06;7.00;;;4.70;;
72095;SDS011;59968;51.084;16.748;2023-06-14T09:15:35;8.10;;;5.00;;
72095;SDS011;59968;51.084;16.748;2023-06-14T09:18:05;7.80;;;5.40;;
72095;SDS011;59968;51.084;16.748;2023-06-14T09:20:34;7.00;;;4.50;;
72095;SDS011;59968;51.084;16.748;2023-06-14T09:23:03;7.90;;;4.90;;
72095;SDS011;59968;51.084;16.748;2023-06-14T09:25:43;8.00;;;4.80;;
72095;SDS011;59968;51.084;16.748;2023-06-14T09:28:14;9.10;;;5.90;;
72095;SDS011;59968;51.084;16.748;2023-06-14T09:30:43;7.50;;;5.20;;
72095;SDS011;59968;51.084;16.748;2023-06-14T09:33:16;6.60;;;4.50;;
72095;SDS011;59968;51.084;16.748;2023-06-14T09:40:25;7.30;;;5.00;;
72095;SDS011;59968;51.084;16.748;2023-06-14T09:42:54;7.40;;;4.70;;
72095;SDS011;59968;51.084;16.748;2023-06-14T09:45:26;6.50;;;4.70;;
72095;SDS011;59968;51.084;16.748;2023-06-14T09:47:58;7.70;;;4.60;;
72095;SDS011;59968;51.084;16.748;2023-06-14T09:50:29;6.50;;;4.30;;
72095;SDS011;59968;51.084;16.748;2023-06-14T09:53:01;6.50;;;4.20;;
72095;SDS011;59968;51.084;16.748;2023-06-14T09:55:34;7.30;;;5.20;;
72095;SDS011;59968;51.084;16.748;2023-06-14T09:58:06;7.70;;;5.00;;
72095;SDS011;59968;51.084;16.748;2023-06-14T10:00:36;6.90;;;4.90;;
72095;SDS011;59968;51.084;16.748;2023-06-14T10:05:45;7.80;;;5.60;;
72095;SDS011;59968;51.084;16.748;2023-06-14T10:08:17;7.00;;;4.70;;
72095;SDS011;59968;51.084;16.748;2023-06-14T10:10:48;7.70;;;5.10;;
72095;SDS011;59968;51.084;16.748;2023-06-14T10:13:17;7.50;;;5.10;;
72095;SDS011;59968;51.084;16.748;2023-06-14T10:25:56;8.80;;;6.00;;
72095;SDS011;59968;51.084;16.748;2023-06-14T10:28:26;8.80;;;5.40;;
72095;SDS011;59968;51.084;16.748;2023-06-14T10:39:16;8.40;;;5.70;;
72095;SDS011;59968;51.084;16.748;2023-06-14T10:41:54;7.80;;;4.70;;
72095;SDS011;59968;51.084;16.748;2023-06-14T10:47:04;7.30;;;5.20;;
72095;SDS011;59968;51.084;16.748;2023-06-14T10:50:14;6.70;;;4.20;;
72095;SDS011;59968;51.084;16.748;2023-06-14T10:52:48;9.00;;;5.00;;
72095;SDS011;59968;51.084;16.748;2023-06-14T10:55:23;8.00;;;5.40;;
72095;SDS011;59968;51.084;16.748;2023-06-14T10:58:00;7.80;;;4.60;;
72095;SDS011;59968;51.084;16.748;2023-06-14T11:00:40;7.40;;;4.80;;
72095;SDS011;59968;51.084;16.748;2023-06-14T11:03:36;6.00;;;4.50;;
72095;SDS011;59968;51.084;16.748;2023-06-14T11:09:49;7.40;;;5.20;;
72095;SDS011;59968;51.084;16.748;2023-06-14T11:12:33;7.90;;;4.70;;
72095;SDS011;59968;51.084;16.748;2023-06-14T11:15:05;6.30;;;4.70;;
72095;SDS011;59968;51.084;16.748;2023-06-14T11:17:37;7.10;;;5.20;;
72095;SDS011;59968;51.084;16.748;2023-06-14T11:20:15;5.90;;;4.40;;
72095;SDS011;59968;51.084;16.748;2023-06-14T11:22:50;8.80;;;4.80;;
72095;SDS011;59968;51.084;16.748;2023-06-14T11:25:20;6.30;;;4.30;;
72095;SDS011;59968;51.084;16.748;2023-06-14T11:27:50;7.10;;;4.50;;
72095;SDS011;59968;51.084;16.748;2023-06-14T11:30:21;6.20;;;4.40;;
72095;SDS011;59968;51.084;16.748;2023-06-14T11:32:52;5.90;;;4.10;;
72095;SDS011;59968;51.084;16.748;2023-06-14T11:35:26;7.00;;;4.60;;
72095;SDS011;59968;51.084;16.748;2023-06-14T11:37:57;8.40;;;4.70;;
72095;SDS011;59968;51.084;16.748;2023-06-14T11:40:27;6.40;;;4.00;;
72095;SDS011;59968;51.084;16.748;2023-06-14T11:43:07;6.90;;;4.50;;
72095;SDS011;59968;51.084;16.748;2023-06-14T11:50:23;7.80;;;4.50;;
72095;SDS011;59968;51.084;16.748;2023-06-14T11:52:56;8.20;;;5.00;;
72095;SDS011;59968;51.084;16.748;2023-06-14T11:55:46;7.10;;;4.80;;
72095;SDS011;59968;51.084;16.748;2023-06-14T11:58:18;7.20;;;4.70;;
72095;SDS011;59968;51.084;16.748;2023-06-14T12:00:50;9.00;;;5.20;;
72095;SDS011;59968;51.084;16.748;2023-06-14T12:03:29;9.70;;;5.30;;
72095;SDS011;59968;51.084;16.748;2023-06-14T12:10:41;7.60;;;5.00;;
72095;SDS011;59968;51.084;16.748;2023-06-14T12:13:22;7.60;;;5.20;;
72095;SDS011;59968;51.084;16.748;2023-06-14T12:20:28;8.90;;;5.20;;
72095;SDS011;59968;51.084;16.748;2023-06-14T12:23:02;6.30;;;4.70;;
72095;SDS011;59968;51.084;16.748;2023-06-14T12:25:39;7.90;;;5.30;;
72095;SDS011;59968;51.084;16.748;2023-06-14T12:28:20;11.10;;;5.90;;
72095;SDS011;59968;51.084;16.748;2023-06-14T12:30:57;9.10;;;5.50;;
72095;SDS011;59968;51.084;16.748;2023-06-14T12:33:39;11.80;;;5.90;;
72095;SDS011;59968;51.084;16.748;2023-06-14T12:36:24;10.40;;;4.90;;
72095;SDS011;59968;51.084;16.748;2023-06-14T12:39:10;5.50;;;2.80;;
72095;SDS011;59968;51.084;16.748;2023-06-14T12:41:49;5.50;;;2.80;;
72095;SDS011;59968;51.084;16.748;2023-06-14T12:44:32;6.00;;;3.50;;
72095;SDS011;59968;51.084;16.748;2023-06-14T12:47:08;6.60;;;3.50;;
72095;SDS011;59968;51.084;16.748;2023-06-14T12:49:41;6.00;;;3.40;;
72095;SDS011;59968;51.084;16.748;2023-06-14T12:52:15;6.50;;;3.70;;
72095;SDS011;59968;51.084;16.748;2023-06-14T12:55:04;5.80;;;3.30;;
72095;SDS011;59968;51.084;16.748;2023-06-14T12:57:43;5.50;;;3.20;;
72095;SDS011;59968;51.084;16.748;2023-06-14T13:00:24;5.10;;;3.10;;
72095;SDS011;59968;51.084;16.748;2023-06-14T13:03:03;5.50;;;3.40;;
72095;SDS011;59968;51.084;16.748;2023-06-14T13:05:34;5.10;;;3.50;;
72095;SDS011;59968;51.084;16.748;2023-06-14T13:08:11;5.60;;;3.70;;
72095;SDS011;59968;51.084;16.748;2023-06-14T13:10:44;4.90;;;4.10;;
72095;SDS011;59968;51.084;16.748;2023-06-14T13:13:30;5.50;;;3.50;;
72095;SDS011;59968;51.084;16.748;2023-06-14T13:16:04;6.50;;;3.10;;
72095;SDS011;59968;51.084;16.748;2023-06-14T13:18:39;4.90;;;3.50;;
72095;SDS011;59968;51.084;16.748;2023-06-14T13:21:12;4.80;;;3.50;;
72095;SDS011;59968;51.084;16.748;2023-06-14T13:23:45;5.30;;;3.50;;
72095;SDS011;59968;51.084;16.748;2023-06-14T13:26:20;6.80;;;3.70;;
72095;SDS011;59968;51.084;16.748;2023-06-14T13:28:56;5.40;;;3.70;;
72095;SDS011;59968;51.084;16.748;2023-06-14T13:31:34;5.00;;;3.60;;
72095;SDS011;59968;51.084;16.748;2023-06-14T13:37:44;6.30;;;3.50;;
72095;SDS011;59968;51.084;16.748;2023-06-14T13:40:27;6.40;;;3.70;;
72095;SDS011;59968;51.084;16.748;2023-06-14T13:43:13;5.50;;;4.00;;
72095;SDS011;59968;51.084;16.748;2023-06-14T13:45:43;7.20;;;3.80;;
72095;SDS011;59968;51.084;16.748;2023-06-14T13:48:16;5.60;;;4.00;;
72095;SDS011;59968;51.084;16.748;2023-06-14T13:50:56;7.00;;;4.40;;
72095;SDS011;59968;51.084;16.748;2023-06-14T13:53:36;6.60;;;3.70;;
72095;SDS011;59968;51.084;16.748;2023-06-14T13:56:12;5.50;;;3.70;;
72095;SDS011;59968;51.084;16.748;2023-06-14T13:58:44;6.70;;;4.60;;
72095;SDS011;59968;51.084;16.748;2023-06-14T14:01:16;7.90;;;4.70;;
72095;SDS011;59968;51.084;16.748;2023-06-14T14:03:48;7.70;;;4.90;;
72095;SDS011;59968;51.084;16.748;2023-06-14T14:06:20;7.40;;;4.80;;
72095;SDS011;59968;51.084;16.748;2023-06-14T14:09:11;9.90;;;4.90;;
72095;SDS011;59968;51.084;16.748;2023-06-14T14:11:42;9.10;;;5.10;;
72095;SDS011;59968;51.084;16.748;2023-06-14T14:14:11;6.00;;;4.30;;
72095;SDS011;59968;51.084;16.748;2023-06-14T14:16:41;7.20;;;4.90;;
72095;SDS011;59968;51.084;16.748;2023-06-14T14:19:10;7.00;;;4.30;;
72095;SDS011;59968;51.084;16.748;2023-06-14T14:21:39;7.90;;;4.80;;
72095;SDS011;59968;51.084;16.748;2023-06-14T14:24:08;6.20;;;4.10;;
72095;SDS011;59968;51.084;16.748;2023-06-14T14:26:39;9.50;;;4.80;;
72095;SDS011;59968;51.084;16.748;2023-06-14T14:29:09;6.50;;;4.50;;
72095;SDS011;59968;51.084;16.748;2023-06-14T14:31:40;6.30;;;4.10;;
72095;SDS011;59968;51.084;16.748;2023-06-14T14:34:09;6.10;;;4.10;;
72095;SDS011;59968;51.084;16.748;2023-06-14T14:36:41;6.50;;;4.70;;
72095;SDS011;59968;51.084;16.748;2023-06-14T14:39:14;8.50;;;4.80;;
72095;SDS011;59968;51.084;16.748;2023-06-14T14:41:47;6.80;;;4.70;;
72095;SDS011;59968;51.084;16.748;2023-06-14T14:44:16;7.90;;;4.70;;
72095;SDS011;59968;51.084;16.748;2023-06-14T14:46:49;7.20;;;4.70;;
72095;SDS011;59968;51.084;16.748;2023-06-14T14:49:18;6.90;;;3.70;;
72095;SDS011;59968;51.084;16.748;2023-06-14T14:51:47;6.50;;;4.30;;
72095;SDS011;59968;51.084;16.748;2023-06-14T14:54:16;5.40;;;3.80;;
72095;SDS011;59968;51.084;16.748;2023-06-14T14:56:45;4.40;;;2.80;;
72095;SDS011;59968;51.084;16.748;2023-06-14T14:59:14;5.10;;;3.00;;
72095;SDS011;59968;51.084;16.748;2023-06-14T15:01:45;5.40;;;3.30;;
72095;SDS011;59968;51.084;16.748;2023-06-14T15:04:14;6.00;;;3.20;;
72095;SDS011;59968;51.084;16.748;2023-06-14T15:06:44;7.10;;;3.30;;
72095;SDS011;59968;51.084;16.748;2023-06-14T15:09:14;6.00;;;3.80;;
72095;SDS011;59968;51.084;16.748;2023-06-14T15:11:45;6.70;;;3.50;;
72095;SDS011;59968;51.084;16.748;2023-06-14T15:14:15;6.10;;;3.60;;
72095;SDS011;59968;51.084;16.748;2023-06-14T15:16:44;5.20;;;3.50;;
72095;SDS011;59968;51.084;16.748;2023-06-14T15:19:13;6.20;;;4.20;;
72095;SDS011;59968;51.084;16.748;2023-06-14T15:21:42;6.10;;;4.20;;
72095;SDS011;59968;51.084;16.748;2023-06-14T15:24:11;6.80;;;4.20;;
72095;SDS011;59968;51.084;16.748;2023-06-14T15:26:51;7.10;;;4.70;;
72095;SDS011;59968;51.084;16.748;2023-06-14T15:29:20;6.70;;;4.70;;
72095;SDS011;59968;51.084;16.748;2023-06-14T15:31:52;7.90;;;4.70;;
72095;SDS011;59968;51.084;16.748;2023-06-14T15:34:26;7.70;;;4.90;;
72095;SDS011;59968;51.084;16.748;2023-06-14T15:36:57;5.90;;;4.20;;
72095;SDS011;59968;51.084;16.748;2023-06-14T15:39:28;6.50;;;4.10;;
72095;SDS011;59968;51.084;16.748;2023-06-14T15:42:02;7.10;;;4.30;;
72095;SDS011;59968;51.084;16.748;2023-06-14T15:44:33;7.20;;;3.90;;
72095;SDS011;59968;51.084;16.748;2023-06-14T15:47:04;5.60;;;3.70;;
72095;SDS011;59968;51.084;16.748;2023-06-14T15:49:36;7.20;;;3.60;;
72095;SDS011;59968;51.084;16.748;2023-06-14T15:52:11;4.90;;;3.30;;
72095;SDS011;59968;51.084;16.748;2023-06-14T15:54:41;8.40;;;3.80;;
72095;SDS011;59968;51.084;16.748;2023-06-14T15:57:11;5.30;;;3.20;;
72095;SDS011;59968;51.084;16.748;2023-06-14T15:59:43;4.40;;;3.20;;
72095;SDS011;59968;51.084;16.748;2023-06-14T16:02:19;5.70;;;3.30;;
72095;SDS011;59968;51.084;16.748;2023-06-14T16:04:48;4.70;;;3.40;;
72095;SDS011;59968;51.084;16.748;2023-06-14T16:07:21;5.20;;;2.80;;
72095;SDS011;59968;51.084;16.748;2023-06-14T16:09:53;4.90;;;3.30;;
72095;SDS011;59968;51.084;16.748;2023-06-14T16:12:24;5.40;;;3.10;;
72095;SDS011;59968;51.084;16.748;2023-06-14T16:14:53;4.80;;;2.70;;
72095;SDS011;59968;51.084;16.748;2023-06-14T16:17:22;5.20;;;3.00;;
72095;SDS011;59968;51.084;16.748;2023-06-14T16:19:52;4.70;;;2.90;;
72095;SDS011;59968;51.084;16.748;2023-06-14T16:22:20;5.70;;;3.00;;
72095;SDS011;59968;51.084;16.748;2023-06-14T16:24:49;5.50;;;3.50;;
72095;SDS011;59968;51.084;16.748;2023-06-14T16:27:18;5.40;;;3.20;;
72095;SDS011;59968;51.084;16.748;2023-06-14T16:29:52;5.70;;;3.80;;
72095;SDS011;59968;51.084;16.748;2023-06-14T16:32:21;7.90;;;4.10;;
72095;SDS011;59968;51.084;16.748;2023-06-14T16:34:50;6.10;;;4.30;;
72095;SDS011;59968;51.084;16.748;2023-06-14T16:37:20;8.90;;;4.20;;
72095;SDS011;59968;51.084;16.748;2023-06-14T16:39:50;6.90;;;4.20;;
72095;SDS011;59968;51.084;16.748;2023-06-14T16:42:21;6.30;;;4.40;;
72095;SDS011;59968;51.084;16.748;2023-06-14T16:44:49;6.70;;;4.40;;
72095;SDS011;59968;51.084;16.748;2023-06-14T16:47:22;6.00;;;4.10;;
72095;SDS011;59968;51.084;16.748;2023-06-14T16:49:53;6.70;;;4.20;;
72095;SDS011;59968;51.084;16.748;2023-06-14T16:52:31;6.10;;;4.60;;